Weather at Oxford (Kidlington) Airport

Public forecast

Using degrees Celsius for public forecast. Weather courtesy of forecast.io.

Current aviation weather report (METAR) for Oxford (Kidlington) Airport

Retrieved 2021/07/26 19:20 UTC (31 minutes ago):

EGTK 261920Z 24004KT 9999 VCSH SCT049CB 22/15 Q1008

Closest aviation forecast (TAF) to Oxford (Kidlington) Airport

Closest forecast is RAF Brize Norton, 11.1 nm (20.5 km) WSW. Retrieved 2021/07/26 18:00 UTC (2 hours ago):

TAF EGVN 261630Z 2618/2718 25007KT 9999 SCT045 PROB40 TEMPO 2704/2711 5000 SHRA TEMPO 2711/2718 7000 SHRA SCT022CB PROB30 TEMPO 2711/2717 3000 +TSRA